Festivo — EAEQ — position and weather

sailwx.info

Track history (hours):
 
Tides and Currents Weather Stations Pressure Air Temp Water Temp Dewpoint Dewpoint Depression Visibility Wind Speed Wind Dir Waves Ship Positions

Festivo

Last reported at 2017-Apr-24 10:45 UTC. Time now 2017-Apr-26 09:57 UTC.
Position N 36°01' W 005°09'.

Length 136 m; draft 4.5 m.

Type: Cargo ship. MMSI: 225410000.

Date/timePositionNaut miles runAvg speedWind from/ knotsBaromVisibWave heightAir tempDewpointWater temp
2017-Apr-24 10:45N 36°01' W 005°09'311.3
2017-Apr-24 10:30N 35°59' W 005°12'611.5
2017-Apr-24 10:00N 35°55' W 005°17'2 4.5
2017-Apr-24 09:30N 35°54' W 005°19'0 0.0
2017-Apr-24 09:00N 35°54' W 005°19'0 0.0
2017-Apr-24 08:30N 35°54' W 005°19'0 0.0
2017-Apr-24 08:00N 35°54' W 005°19'0 0.0
2017-Apr-24 07:30N 35°54' W 005°19'0 0.0
2017-Apr-24 07:00N 35°54' W 005°19'0 0.0
2017-Apr-24 06:30N 35°54' W 005°19'0 0.0
2017-Apr-24 06:00N 35°54' W 005°19'0 0.0
2017-Apr-24 05:30N 35°54' W 005°19'0 0.0
2017-Apr-24 05:00N 35°54' W 005°19'0 0.3
2017-Apr-24 04:30N 35°54' W 005°19'3 5.3
2017-Apr-24 04:00N 35°56' W 005°17'3 6.8
2017-Apr-24 03:30N 35°55' W 005°13'4 7.7
2017-Apr-24 02:55N 35°54' W 005°08'4 9.9
2017-Apr-24 02:29N 35°53' W 005°03'  
2017-Apr-18 14:00N 36°33' W 004°31'611.3
2017-Apr-18 13:30N 36°29' W 004°36'3211.9
2017-Apr-18 10:51N 36°07' W 005°04'412.6
2017-Apr-18 10:30N 36°04' W 005°08'612.3
2017-Apr-18 10:00N 35°60' W 005°13'611.5
2017-Apr-18 09:30N 35°56' W 005°18'2 4.4
2017-Apr-18 09:00N 35°54' W 005°19'0 0.0
2017-Apr-18 08:30N 35°54' W 005°19'0 0.0
2017-Apr-18 08:00N 35°54' W 005°19'0 0.0
2017-Apr-18 07:30N 35°54' W 005°19'0 0.0
2017-Apr-18 07:00N 35°54' W 005°19'0 0.0
2017-Apr-18 06:30N 35°54' W 005°19'0 0.0
2017-Apr-18 06:00N 35°54' W 005°19'0 0.0
2017-Apr-18 05:30N 35°54' W 005°19'0 0.0
2017-Apr-18 05:00N 35°54' W 005°19'0 0.4
2017-Apr-18 04:30N 35°54' W 005°19'3 6.3
2017-Apr-18 04:00N 35°56' W 005°17'3 6.4
2017-Apr-18 03:30N 35°58' W 005°14'2 4.4
2017-Apr-18 03:00N 35°59' W 005°12'4 8.0
2017-Apr-18 02:30N 36°02' W 005°08'4 8.0
2017-Apr-18 02:00N 36°05' W 005°04'4 8.1
2017-Apr-18 01:30N 36°07' W 005°00'4 7.9
2017-Apr-18 01:00N 36°10' W 004°57'4 7.6
2017-Apr-18 00:30N 36°13' W 004°54'5 8.4
2017-Apr-17 23:56N 36°16' W 004°50'4 8.5
2017-Apr-17 23:30N 36°19' W 004°46'510.5
2017-Apr-17 23:00N 36°23' W 004°42'611.5
2017-Apr-17 22:29N 36°27' W 004°36'611.5
2017-Apr-17 21:58N 36°31' W 004°31'910.4
2017-Apr-17 21:08N 36°38' W 004°25'110.7
2017-Apr-17 21:00N 36°39' W 004°25'  
Track history (hours):
 
Tides and Currents Weather Stations Pressure Air Temp Water Temp Dewpoint Dewpoint Depression Visibility Wind Speed Wind Dir Waves Ship Positions

Festivo

Last reported at 2017-Apr-24 10:45 UTC. Time now 2017-Apr-26 09:57 UTC.
Position N 36°01' W 005°09'.

Length 136 m; draft 4.5 m.

Type: Cargo ship. MMSI: 225410000.

Date/timePositionNaut miles runAvg speedWind from/ knotsBaromVisibWave heightAir tempDewpointWater temp
2017-Apr-24 10:45N 36°01' W 005°09'311.3
2017-Apr-24 10:30N 35°59' W 005°12'611.5
2017-Apr-24 10:00N 35°55' W 005°17'2 4.5
2017-Apr-24 09:30N 35°54' W 005°19'0 0.0
2017-Apr-24 09:00N 35°54' W 005°19'0 0.0
2017-Apr-24 08:30N 35°54' W 005°19'0 0.0
2017-Apr-24 08:00N 35°54' W 005°19'0 0.0
2017-Apr-24 07:30N 35°54' W 005°19'0 0.0
2017-Apr-24 07:00N 35°54' W 005°19'0 0.0
2017-Apr-24 06:30N 35°54' W 005°19'0 0.0
2017-Apr-24 06:00N 35°54' W 005°19'0 0.0
2017-Apr-24 05:30N 35°54' W 005°19'0 0.0
2017-Apr-24 05:00N 35°54' W 005°19'0 0.3
2017-Apr-24 04:30N 35°54' W 005°19'3 5.3
2017-Apr-24 04:00N 35°56' W 005°17'3 6.8
2017-Apr-24 03:30N 35°55' W 005°13'4 7.7
2017-Apr-24 02:55N 35°54' W 005°08'4 9.9
2017-Apr-24 02:29N 35°53' W 005°03'  
2017-Apr-18 14:00N 36°33' W 004°31'611.3
2017-Apr-18 13:30N 36°29' W 004°36'3211.9
2017-Apr-18 10:51N 36°07' W 005°04'412.6
2017-Apr-18 10:30N 36°04' W 005°08'612.3
2017-Apr-18 10:00N 35°60' W 005°13'611.5
2017-Apr-18 09:30N 35°56' W 005°18'2 4.4
2017-Apr-18 09:00N 35°54' W 005°19'0 0.0
2017-Apr-18 08:30N 35°54' W 005°19'0 0.0
2017-Apr-18 08:00N 35°54' W 005°19'0 0.0
2017-Apr-18 07:30N 35°54' W 005°19'0 0.0
2017-Apr-18 07:00N 35°54' W 005°19'0 0.0
2017-Apr-18 06:30N 35°54' W 005°19'0 0.0
2017-Apr-18 06:00N 35°54' W 005°19'0 0.0
2017-Apr-18 05:30N 35°54' W 005°19'0 0.0
2017-Apr-18 05:00N 35°54' W 005°19'0 0.4
2017-Apr-18 04:30N 35°54' W 005°19'3 6.3
2017-Apr-18 04:00N 35°56' W 005°17'3 6.4
2017-Apr-18 03:30N 35°58' W 005°14'2 4.4
2017-Apr-18 03:00N 35°59' W 005°12'4 8.0
2017-Apr-18 02:30N 36°02' W 005°08'4 8.0
2017-Apr-18 02:00N 36°05' W 005°04'4 8.1
2017-Apr-18 01:30N 36°07' W 005°00'4 7.9
2017-Apr-18 01:00N 36°10' W 004°57'4 7.6
2017-Apr-18 00:30N 36°13' W 004°54'5 8.4
2017-Apr-17 23:56N 36°16' W 004°50'4 8.5
2017-Apr-17 23:30N 36°19' W 004°46'510.5
2017-Apr-17 23:00N 36°23' W 004°42'611.5
2017-Apr-17 22:29N 36°27' W 004°36'611.5
2017-Apr-17 21:58N 36°31' W 004°31'910.4
2017-Apr-17 21:08N 36°38' W 004°25'110.7
2017-Apr-17 21:00N 36°39' W 004°25'  

Dump ship's entire track history